createdAt,value
2017-11-21T00:00:18.314Z,3.90
2017-11-21T00:02:44.738Z,4.00
2017-11-21T00:05:11.199Z,4.00
2017-11-21T00:07:37.634Z,4.00
2017-11-21T00:10:04.043Z,4.00
2017-11-21T00:12:30.491Z,4.00
2017-11-21T00:14:56.907Z,4.00
2017-11-21T00:17:23.325Z,4.00
2017-11-21T00:19:49.803Z,4.00
2017-11-21T00:22:28.371Z,3.90
2017-11-21T00:24:55.523Z,3.90
2017-11-21T00:27:21.963Z,3.90
2017-11-21T00:29:48.389Z,4.00
2017-11-21T00:32:14.857Z,3.90
2017-11-21T00:34:41.287Z,3.90
2017-11-21T00:37:07.720Z,3.80
2017-11-21T00:39:34.154Z,3.90
2017-11-21T00:42:01.336Z,3.90
2017-11-21T00:44:27.778Z,3.80
2017-11-21T00:46:54.180Z,3.80
2017-11-21T00:49:20.587Z,3.80
2017-11-21T00:51:46.995Z,3.80
2017-11-21T00:54:13.439Z,3.80
2017-11-21T00:56:39.846Z,3.80
2017-11-21T00:59:06.974Z,3.80
2017-11-21T01:01:33.422Z,3.80
2017-11-21T01:03:59.802Z,3.90
2017-11-21T01:06:26.195Z,3.90
2017-11-21T01:08:52.605Z,3.90
2017-11-21T01:11:19.010Z,3.90
2017-11-21T01:13:45.501Z,3.90
2017-11-21T01:16:12.646Z,3.90
2017-11-21T01:18:39.801Z,3.90
2017-11-21T01:21:06.394Z,3.80
2017-11-21T01:23:32.788Z,3.90
2017-11-21T01:25:59.214Z,3.90
2017-11-21T01:28:25.632Z,3.80
2017-11-21T01:30:52.086Z,3.70
2017-11-21T01:33:18.796Z,3.70
2017-11-21T01:35:45.218Z,3.70
2017-11-21T01:38:12.377Z,3.70
2017-11-21T01:40:38.831Z,3.70
2017-11-21T01:43:06.025Z,3.70
2017-11-21T01:45:32.847Z,3.70
2017-11-21T01:47:59.249Z,3.70
2017-11-21T01:50:26.394Z,3.70
2017-11-21T01:52:52.835Z,3.60
2017-11-21T01:55:19.254Z,3.60
2017-11-21T01:57:46.593Z,3.70
2017-11-21T02:00:13.020Z,3.60
2017-11-21T02:02:40.215Z,3.70
2017-11-21T02:05:06.763Z,3.70
2017-11-21T02:07:33.166Z,3.80
2017-11-21T02:10:00.301Z,3.70
2017-11-21T02:12:26.711Z,3.70
2017-11-21T02:14:53.167Z,3.80
2017-11-21T02:17:20.345Z,3.70
2017-11-21T02:19:46.793Z,3.70
2017-11-21T02:22:13.282Z,3.60
2017-11-21T02:24:39.775Z,3.60
2017-11-21T02:27:06.235Z,3.60
2017-11-21T02:29:33.451Z,3.60
2017-11-21T02:31:59.935Z,3.50
2017-11-21T02:34:26.383Z,3.50
2017-11-21T02:36:52.882Z,3.50
2017-11-21T02:39:19.397Z,3.50
2017-11-21T02:41:45.866Z,3.60
2017-11-21T02:44:13.129Z,3.60
2017-11-21T02:46:39.621Z,3.60
2017-11-21T02:49:06.105Z,3.70
2017-11-21T02:51:32.595Z,3.80
2017-11-21T02:53:59.081Z,3.90
2017-11-21T02:56:25.537Z,3.80
2017-11-21T02:58:52.122Z,3.90
2017-11-21T03:01:19.319Z,3.90
2017-11-21T03:03:45.763Z,3.90
2017-11-21T03:06:12.194Z,3.90
2017-11-21T03:08:38.606Z,3.90
2017-11-21T03:11:05.104Z,3.80
2017-11-21T03:13:31.552Z,3.80
2017-11-21T03:15:58.723Z,3.80
2017-11-21T03:18:25.186Z,3.70
2017-11-21T03:21:03.779Z,3.80
2017-11-21T03:23:42.514Z,3.80
2017-11-21T03:26:16.747Z,3.80
2017-11-21T03:28:43.241Z,3.80
2017-11-21T03:31:09.680Z,3.80
2017-11-21T03:33:36.145Z,3.80
2017-11-21T03:36:02.640Z,3.80
2017-11-21T03:38:29.086Z,3.80
2017-11-21T03:40:55.534Z,3.80
2017-11-21T03:43:21.984Z,3.80
2017-11-21T03:45:48.435Z,3.80
2017-11-21T03:48:15.630Z,3.80
2017-11-21T03:50:42.089Z,3.80
2017-11-21T03:53:08.534Z,3.80
2017-11-21T03:55:35.014Z,3.90
2017-11-21T03:58:02.175Z,3.90
2017-11-21T04:00:28.614Z,3.90
2017-11-21T04:02:55.086Z,4.00
2017-11-21T04:05:21.512Z,4.00
2017-11-21T04:07:47.983Z,4.00
2017-11-21T04:10:14.372Z,4.10
2017-11-21T04:12:40.804Z,4.10
2017-11-21T04:15:07.263Z,4.10
2017-11-21T04:17:34.466Z,4.10
2017-11-21T04:20:00.890Z,4.10
2017-11-21T04:22:27.374Z,4.10
2017-11-21T04:24:53.825Z,4.10
2017-11-21T04:27:20.221Z,4.20
2017-11-21T04:29:46.641Z,4.20
2017-11-21T04:32:13.078Z,4.20
2017-11-21T04:34:39.493Z,4.20
2017-11-21T04:37:05.961Z,4.10
2017-11-21T04:39:33.126Z,4.00
2017-11-21T04:42:00.343Z,4.00
2017-11-21T04:44:26.762Z,4.00
2017-11-21T04:46:53.183Z,4.10
2017-11-21T04:49:20.361Z,4.10
2017-11-21T04:51:46.763Z,4.10
2017-11-21T04:54:13.266Z,4.10
2017-11-21T04:56:40.450Z,4.10
2017-11-21T04:59:06.897Z,4.10
2017-11-21T05:01:33.358Z,4.00
2017-11-21T05:03:59.813Z,4.10
2017-11-21T05:06:27.082Z,4.00
2017-11-21T05:08:53.507Z,4.00
2017-11-21T05:11:20.717Z,3.90
2017-11-21T05:13:47.190Z,3.90
2017-11-21T05:16:14.391Z,3.90
2017-11-21T05:18:40.871Z,3.90
2017-11-21T05:21:07.325Z,3.90
2017-11-21T05:23:33.890Z,3.90
2017-11-21T05:26:00.310Z,3.90
2017-11-21T05:28:26.739Z,3.90
2017-11-21T05:30:53.227Z,3.90
2017-11-21T05:33:31.895Z,3.80
2017-11-21T05:35:58.298Z,3.90
2017-11-21T05:38:25.486Z,3.90
2017-11-21T05:40:51.949Z,3.90
2017-11-21T05:43:18.384Z,3.90
2017-11-21T05:45:44.832Z,3.90
2017-11-21T05:48:11.295Z,3.90
2017-11-21T05:50:38.501Z,3.90
2017-11-21T05:53:04.984Z,3.90
2017-11-21T05:55:31.419Z,3.90
2017-11-21T05:57:58.599Z,3.90
2017-11-21T06:00:25.072Z,3.80
2017-11-21T06:02:52.289Z,3.80
2017-11-21T06:05:18.730Z,3.80
2017-11-21T06:07:45.255Z,3.80
2017-11-21T06:10:11.711Z,3.90
2017-11-21T06:12:38.130Z,3.90
2017-11-21T06:15:04.564Z,3.90
2017-11-21T06:17:30.999Z,3.90
2017-11-21T06:19:57.401Z,4.00
2017-11-21T06:22:23.878Z,4.00
2017-11-21T06:24:50.267Z,4.10
2017-11-21T06:27:16.674Z,4.10
2017-11-21T06:29:43.931Z,4.20
2017-11-21T06:32:11.587Z,4.20
2017-11-21T06:34:38.734Z,4.20
2017-11-21T06:37:05.205Z,4.20
2017-11-21T06:39:31.603Z,4.20
2017-11-21T06:41:58.780Z,4.20
2017-11-21T06:44:25.183Z,4.20
2017-11-21T06:46:52.346Z,4.30
2017-11-21T06:49:19.491Z,4.30
2017-11-21T06:51:46.623Z,4.30
2017-11-21T06:54:13.047Z,4.30
2017-11-21T06:56:39.481Z,4.30
2017-11-21T06:59:05.912Z,4.40
2017-11-21T07:01:32.318Z,4.30
2017-11-21T07:03:58.722Z,4.40
2017-11-21T07:06:25.121Z,4.40
2017-11-21T07:08:51.534Z,4.40
2017-11-21T07:11:18.014Z,4.40
2017-11-21T07:13:44.446Z,4.40
2017-11-21T07:16:10.837Z,4.40
2017-11-21T07:18:37.268Z,4.40
2017-11-21T07:21:03.669Z,4.40
2017-11-21T07:23:30.116Z,4.40
2017-11-21T07:25:57.263Z,4.50
2017-11-21T07:28:23.677Z,4.50
2017-11-21T07:30:50.143Z,4.50
2017-11-21T07:33:16.543Z,4.50
2017-11-21T07:35:42.992Z,4.60
2017-11-21T07:38:09.394Z,4.60
2017-11-21T07:40:35.846Z,4.80
2017-11-21T07:43:02.246Z,4.90
2017-11-21T07:45:29.396Z,5.10
2017-11-21T07:47:55.854Z,5.00
2017-11-21T07:50:22.279Z,5.10
2017-11-21T07:52:48.726Z,5.10
2017-11-21T07:55:15.122Z,5.10
2017-11-21T07:57:41.539Z,5.10
2017-11-21T08:00:07.957Z,5.10
2017-11-21T08:02:35.108Z,5.00
2017-11-21T08:05:01.584Z,5.00
2017-11-21T08:07:28.018Z,5.00
2017-11-21T08:09:54.440Z,5.10
2017-11-21T08:12:20.881Z,5.20
2017-11-21T08:14:47.340Z,5.20
2017-11-21T08:17:13.878Z,5.30
2017-11-21T08:19:40.308Z,5.30
2017-11-21T08:22:06.750Z,5.30
2017-11-21T08:24:33.182Z,5.30
2017-11-21T08:26:59.603Z,5.30
2017-11-21T08:29:26.066Z,5.20
2017-11-21T08:31:53.261Z,5.20
2017-11-21T08:34:19.709Z,5.20
2017-11-21T08:36:46.156Z,5.20
2017-11-21T08:39:12.612Z,5.20
2017-11-21T08:41:39.098Z,5.20
2017-11-21T08:44:05.599Z,5.20
2017-11-21T08:46:32.767Z,5.30
2017-11-21T08:48:59.185Z,5.30
2017-11-21T08:51:25.667Z,5.30
2017-11-21T08:53:52.055Z,5.20
2017-11-21T08:56:19.231Z,5.40
2017-11-21T08:58:45.687Z,5.40
2017-11-21T09:01:12.068Z,5.40
2017-11-21T09:03:38.496Z,5.50
2017-11-21T09:06:04.929Z,5.60
2017-11-21T09:08:31.385Z,5.90
2017-11-21T09:10:57.879Z,6.20
2017-11-21T09:13:24.347Z,6.80
2017-11-21T09:15:51.490Z,10.30
2017-11-21T09:18:18.630Z,11.50
2017-11-21T09:20:45.098Z,11.50
2017-11-21T09:23:11.506Z,12.90
2017-11-21T09:25:38.655Z,14.30
2017-11-21T09:28:05.824Z,15.30
2017-11-21T09:30:32.986Z,14.00
2017-11-21T09:32:59.378Z,14.00
2017-11-21T09:35:26.551Z,10.70
2017-11-21T09:37:52.983Z,10.70
2017-11-21T09:40:20.126Z,10.10
2017-11-21T09:42:46.614Z,10.00
2017-11-21T09:45:13.042Z,10.20
2017-11-21T09:47:39.455Z,9.70
2017-11-21T09:50:05.892Z,9.20
2017-11-21T09:52:32.296Z,8.70
2017-11-21T09:54:58.708Z,8.40
2017-11-21T09:57:25.895Z,8.00
2017-11-21T09:59:52.314Z,7.90
2017-11-21T10:02:18.783Z,7.80
2017-11-21T10:04:45.251Z,7.60
2017-11-21T10:07:12.454Z,7.70
2017-11-21T10:09:38.930Z,7.70
2017-11-21T10:12:05.407Z,7.60
2017-11-21T10:14:31.796Z,7.50
2017-11-21T10:16:58.289Z,7.60
2017-11-21T10:19:24.828Z,7.70
2017-11-21T10:21:51.224Z,7.80
2017-11-21T10:24:18.406Z,8.10
2017-11-21T10:26:44.906Z,8.10
2017-11-21T10:29:12.067Z,8.20
2017-11-21T10:31:38.523Z,8.20
2017-11-21T10:34:05.010Z,8.40
2017-11-21T10:36:31.462Z,8.60
2017-11-21T10:38:57.921Z,8.90
2017-11-21T10:41:24.376Z,9.80
2017-11-21T10:43:50.834Z,10.50
2017-11-21T10:46:18.021Z,11.90
2017-11-21T10:48:44.434Z,11.80
2017-11-21T10:51:11.623Z,14.10
2017-11-21T10:53:38.021Z,14.00
2017-11-21T10:56:05.261Z,15.20
2017-11-21T10:58:32.451Z,16.20
2017-11-21T11:00:58.944Z,16.20
2017-11-21T11:03:29.429Z,15.10
2017-11-21T11:05:56.702Z,13.00
2017-11-21T11:08:24.038Z,12.60
2017-11-21T11:10:50.555Z,12.60
2017-11-21T11:13:17.127Z,12.60
2017-11-21T11:15:43.590Z,14.10
2017-11-21T11:18:10.834Z,15.80
2017-11-21T11:20:38.059Z,16.10
2017-11-21T11:23:04.539Z,16.00
2017-11-21T11:25:31.710Z,14.50
2017-11-21T11:27:58.186Z,14.50
2017-11-21T11:30:25.461Z,12.60
2017-11-21T11:32:52.658Z,11.90
2017-11-21T11:35:19.121Z,11.80
2017-11-21T11:37:46.319Z,11.30
2017-11-21T11:40:12.819Z,11.20
2017-11-21T11:42:40.060Z,10.80
2017-11-21T11:45:06.524Z,10.80
2017-11-21T11:47:33.044Z,10.80
2017-11-21T11:49:59.523Z,10.70
2017-11-21T11:52:25.988Z,10.70
2017-11-21T11:54:53.240Z,10.80
2017-11-21T11:57:20.453Z,10.70
2017-11-21T11:59:46.941Z,10.70
2017-11-21T12:02:13.354Z,10.80
2017-11-21T12:04:39.866Z,10.80
2017-11-21T12:07:06.345Z,10.80
2017-11-21T12:09:33.554Z,10.80
2017-11-21T12:12:00.056Z,10.70
2017-11-21T12:14:26.562Z,11.00
2017-11-21T12:16:53.827Z,11.10
2017-11-21T12:19:20.318Z,11.10
2017-11-21T12:21:46.811Z,11.30
2017-11-21T12:24:13.327Z,11.30
2017-11-21T12:26:39.818Z,11.40
2017-11-21T12:29:06.320Z,11.50
2017-11-21T12:31:32.797Z,11.60
2017-11-21T12:33:59.317Z,11.60
2017-11-21T12:36:25.777Z,11.60
2017-11-21T12:38:53.254Z,11.50
2017-11-21T12:41:19.737Z,11.40
2017-11-21T12:43:46.222Z,11.40
2017-11-21T12:46:12.898Z,11.30
2017-11-21T12:48:39.355Z,11.30
2017-11-21T12:51:05.889Z,11.30
2017-11-21T12:53:32.350Z,11.30
2017-11-21T12:55:59.591Z,11.20
2017-11-21T12:58:26.795Z,11.10
2017-11-21T13:00:53.265Z,11.10
2017-11-21T13:03:19.767Z,11.00
2017-11-21T13:05:46.250Z,11.00
2017-11-21T13:08:13.446Z,11.00
2017-11-21T13:10:40.004Z,10.90
2017-11-21T13:13:06.519Z,10.90
2017-11-21T13:15:32.978Z,10.80
2017-11-21T13:17:59.439Z,10.70
2017-11-21T13:20:26.719Z,10.70
2017-11-21T13:22:53.221Z,10.70
2017-11-21T13:25:20.487Z,10.70
2017-11-21T13:27:47.722Z,10.70
2017-11-21T13:30:14.967Z,10.60
2017-11-21T13:32:41.451Z,10.60
2017-11-21T13:35:07.979Z,10.60
2017-11-21T13:37:35.174Z,10.50
2017-11-21T13:40:01.659Z,10.50
2017-11-21T13:42:28.191Z,10.50
2017-11-21T13:44:54.687Z,10.40
2017-11-21T13:47:21.966Z,10.50
2017-11-21T13:49:48.430Z,10.50
2017-11-21T13:52:14.958Z,10.50
2017-11-21T13:54:41.447Z,10.60
2017-11-21T13:57:07.964Z,10.60
2017-11-21T13:59:34.454Z,10.60
2017-11-21T14:02:00.899Z,10.60
2017-11-21T14:04:27.395Z,10.60
2017-11-21T14:06:54.616Z,10.50
2017-11-21T14:09:21.078Z,10.50
2017-11-21T14:11:47.714Z,10.50
2017-11-21T14:14:14.931Z,10.50
2017-11-21T14:16:41.396Z,10.50
2017-11-21T14:19:08.677Z,10.40
2017-11-21T14:21:35.186Z,10.50
2017-11-21T14:24:02.396Z,10.40
2017-11-21T14:26:28.886Z,10.40
2017-11-21T14:28:56.158Z,10.40
2017-11-21T14:31:23.353Z,10.40
2017-11-21T14:33:49.824Z,10.40
2017-11-21T14:36:17.059Z,10.30
2017-11-21T14:38:43.570Z,10.20
2017-11-21T14:41:11.536Z,10.10
2017-11-21T14:43:38.002Z,10.10
2017-11-21T14:46:04.462Z,10.00
2017-11-21T14:48:30.946Z,10.00
2017-11-21T14:50:57.442Z,9.90
2017-11-21T14:53:23.914Z,9.90
2017-11-21T14:55:50.390Z,9.80
2017-11-21T14:58:16.899Z,9.70
2017-11-21T15:00:44.157Z,9.70
2017-11-21T15:03:11.412Z,9.70
2017-11-21T15:05:38.658Z,9.60
2017-11-21T15:08:05.147Z,9.60
2017-11-21T15:10:32.373Z,9.50
2017-11-21T15:12:58.859Z,9.50
2017-11-21T15:15:25.347Z,9.50
2017-11-21T15:17:51.814Z,9.30
2017-11-21T15:20:18.270Z,9.30
2017-11-21T15:22:44.804Z,9.30
2017-11-21T15:25:11.274Z,9.20
2017-11-21T15:27:37.721Z,9.10
2017-11-21T15:30:04.271Z,9.10
2017-11-21T15:32:30.731Z,9.00
2017-11-21T15:34:57.179Z,9.00
2017-11-21T15:37:24.503Z,8.90
2017-11-21T15:39:50.935Z,8.80
2017-11-21T15:42:17.383Z,8.80
2017-11-21T15:44:43.864Z,8.80
2017-11-21T15:47:11.067Z,8.70
2017-11-21T15:49:37.566Z,8.60
2017-11-21T15:52:04.031Z,8.60
2017-11-21T15:54:30.458Z,8.60
2017-11-21T15:56:56.947Z,8.50
2017-11-21T15:59:24.182Z,8.50
2017-11-21T16:01:51.475Z,8.50
2017-11-21T16:04:17.926Z,8.40
2017-11-21T16:06:44.442Z,8.40
2017-11-21T16:09:10.933Z,8.40
2017-11-21T16:11:38.247Z,8.40
2017-11-21T16:14:04.752Z,8.40
2017-11-21T16:16:31.247Z,8.30
2017-11-21T16:18:57.687Z,8.30
2017-11-21T16:21:24.160Z,8.30
2017-11-21T16:23:50.595Z,8.30
2017-11-21T16:26:17.079Z,8.30
2017-11-21T16:28:43.522Z,8.30
2017-11-21T16:31:09.979Z,8.30
2017-11-21T16:33:37.219Z,8.30
2017-11-21T16:36:04.431Z,8.20
2017-11-21T16:38:31.701Z,8.20
2017-11-21T16:40:58.127Z,8.20
2017-11-21T16:43:24.619Z,8.10
2017-11-21T16:45:51.102Z,8.00
2017-11-21T16:48:17.573Z,8.00
2017-11-21T16:50:44.742Z,7.90
2017-11-21T16:53:11.191Z,7.90
2017-11-21T16:55:37.651Z,7.90
2017-11-21T16:58:04.151Z,7.90
2017-11-21T17:00:30.672Z,7.90
2017-11-21T17:02:57.151Z,7.80
2017-11-21T17:05:23.616Z,7.90
2017-11-21T17:07:50.111Z,7.80
2017-11-21T17:10:16.580Z,7.70
2017-11-21T17:12:43.795Z,7.70
2017-11-21T17:15:11.011Z,7.70
2017-11-21T17:17:37.532Z,7.70
2017-11-21T17:20:04.010Z,7.80
2017-11-21T17:22:30.461Z,7.90
2017-11-21T17:24:56.909Z,7.90
2017-11-21T17:27:24.093Z,7.90
2017-11-21T17:29:50.582Z,7.90
2017-11-21T17:32:17.002Z,8.00
2017-11-21T17:34:43.435Z,7.90
2017-11-21T17:37:10.692Z,8.00
2017-11-21T17:39:37.143Z,8.00
2017-11-21T17:42:03.556Z,7.90
2017-11-21T17:44:30.129Z,7.90
2017-11-21T17:46:56.561Z,7.90
2017-11-21T17:49:23.799Z,7.70
2017-11-21T17:51:50.984Z,7.70
2017-11-21T17:54:17.492Z,7.60
2017-11-21T17:56:43.990Z,7.70
2017-11-21T17:59:10.419Z,7.70
2017-11-21T18:01:36.873Z,7.80
2017-11-21T18:04:04.113Z,7.60
2017-11-21T18:06:31.347Z,7.60
2017-11-21T18:08:57.817Z,7.60
2017-11-21T18:11:25.062Z,7.70
2017-11-21T18:13:51.508Z,7.70
2017-11-21T18:16:17.990Z,7.60
2017-11-21T18:18:44.503Z,7.60
2017-11-21T18:21:10.986Z,7.60
2017-11-21T18:23:37.446Z,7.60
2017-11-21T18:26:04.659Z,7.60
2017-11-21T18:28:31.110Z,7.60
2017-11-21T18:30:57.550Z,7.60
2017-11-21T18:33:24.051Z,7.50
2017-11-21T18:35:50.468Z,7.50
2017-11-21T18:38:16.914Z,7.50
2017-11-21T18:40:43.339Z,7.50
2017-11-21T18:43:09.818Z,7.50
2017-11-21T18:45:36.337Z,7.40
2017-11-21T18:48:02.779Z,7.30
2017-11-21T18:50:29.237Z,7.30
2017-11-21T18:52:56.394Z,7.30
2017-11-21T18:55:22.853Z,7.30
2017-11-21T18:57:49.282Z,7.30
2017-11-21T19:00:15.750Z,7.40
2017-11-21T19:02:42.978Z,7.40
2017-11-21T19:05:09.430Z,7.30
2017-11-21T19:07:35.922Z,7.40
2017-11-21T19:10:02.382Z,7.50
2017-11-21T19:12:28.833Z,7.50
2017-11-21T19:14:55.290Z,7.40
2017-11-21T19:17:21.762Z,7.40
2017-11-21T19:19:48.248Z,7.40
2017-11-21T19:22:14.724Z,7.30
2017-11-21T19:24:41.242Z,7.30
2017-11-21T19:27:08.456Z,7.30
2017-11-21T19:29:34.900Z,7.30
2017-11-21T19:32:01.325Z,7.30
2017-11-21T19:34:27.787Z,7.30
2017-11-21T19:36:54.238Z,7.30
2017-11-21T19:39:20.713Z,7.30
2017-11-21T19:41:47.169Z,7.20
2017-11-21T19:44:13.607Z,7.30
2017-11-21T19:46:40.109Z,7.30
2017-11-21T19:49:06.585Z,7.30
2017-11-21T19:51:33.785Z,7.20
2017-11-21T19:54:00.290Z,7.20
2017-11-21T19:56:26.719Z,7.20
2017-11-21T19:58:53.972Z,7.10
2017-11-21T20:01:21.139Z,7.10
2017-11-21T20:03:47.611Z,7.10
2017-11-21T20:06:14.839Z,7.00
2017-11-21T20:08:41.263Z,7.00
2017-11-21T20:11:07.718Z,7.00
2017-11-21T20:13:34.168Z,7.00
2017-11-21T20:16:00.667Z,7.00
2017-11-21T20:18:27.118Z,7.00
2017-11-21T20:20:54.672Z,7.00
2017-11-21T20:23:21.150Z,7.00
2017-11-21T20:25:47.625Z,7.00
2017-11-21T20:28:14.131Z,7.00
2017-11-21T20:30:40.600Z,6.90
2017-11-21T20:33:07.124Z,6.80
2017-11-21T20:35:33.633Z,6.80
2017-11-21T20:38:00.102Z,6.80
2017-11-21T20:40:26.624Z,6.80
2017-11-21T20:42:53.142Z,6.70
2017-11-21T20:45:19.658Z,6.70
2017-11-21T20:47:46.215Z,6.70
2017-11-21T20:50:12.697Z,6.70
2017-11-21T20:52:39.190Z,6.70
2017-11-21T20:55:05.674Z,6.70
2017-11-21T20:57:32.923Z,6.70
2017-11-21T20:59:59.433Z,6.70
2017-11-21T21:02:25.864Z,6.70
2017-11-21T21:04:52.300Z,6.70
2017-11-21T21:07:18.759Z,6.70
2017-11-21T21:09:45.966Z,6.90
2017-11-21T21:12:12.407Z,6.90
2017-11-21T21:14:38.881Z,7.00
2017-11-21T21:17:05.320Z,7.10
2017-11-21T21:19:31.774Z,7.20
2017-11-21T21:21:58.252Z,7.30
2017-11-21T21:24:24.667Z,7.30
2017-11-21T21:26:51.143Z,7.30
2017-11-21T21:29:18.395Z,7.30
2017-11-21T21:31:44.867Z,7.30
2017-11-21T21:34:11.305Z,7.50
2017-11-21T21:36:37.742Z,7.50
2017-11-21T21:39:04.195Z,7.50
2017-11-21T21:41:30.666Z,7.60
2017-11-21T21:43:57.091Z,7.60
2017-11-21T21:46:23.585Z,7.60
2017-11-21T21:48:50.001Z,7.60
2017-11-21T21:51:16.446Z,7.60
2017-11-21T21:53:42.950Z,7.60
2017-11-21T21:56:09.434Z,7.50
2017-11-21T21:58:35.930Z,7.40
2017-11-21T22:01:02.382Z,7.40
2017-11-21T22:03:28.865Z,7.30
2017-11-21T22:05:56.081Z,7.20
2017-11-21T22:08:22.538Z,7.20
2017-11-21T22:10:48.986Z,7.20
2017-11-21T22:13:15.406Z,7.20
2017-11-21T22:15:41.811Z,7.20
2017-11-21T22:18:08.549Z,7.20
2017-11-21T22:20:34.987Z,7.20
2017-11-21T22:23:01.423Z,7.20
2017-11-21T22:25:28.083Z,7.20
2017-11-21T22:27:54.486Z,7.10
2017-11-21T22:30:20.918Z,7.20
2017-11-21T22:32:47.408Z,7.10
2017-11-21T22:35:14.567Z,7.10
2017-11-21T22:37:41.008Z,7.10
2017-11-21T22:40:07.464Z,7.10
2017-11-21T22:42:34.215Z,7.10
2017-11-21T22:45:00.631Z,7.10
2017-11-21T22:47:27.086Z,7.10
2017-11-21T22:49:53.809Z,7.00
2017-11-21T22:52:20.234Z,7.00
2017-11-21T22:54:46.743Z,7.00
2017-11-21T22:57:13.938Z,7.00
2017-11-21T22:59:40.357Z,7.00
2017-11-21T23:02:06.811Z,7.00
2017-11-21T23:04:33.238Z,7.00
2017-11-21T23:06:59.963Z,6.90
2017-11-21T23:09:26.397Z,6.90
2017-11-21T23:11:52.868Z,6.90
2017-11-21T23:14:19.302Z,7.00
2017-11-21T23:16:46.498Z,7.20
2017-11-21T23:19:12.980Z,7.10
2017-11-21T23:21:39.371Z,7.20
2017-11-21T23:24:05.821Z,7.20
2017-11-21T23:26:32.231Z,7.10
2017-11-21T23:28:58.654Z,7.20
2017-11-21T23:31:25.138Z,7.20
2017-11-21T23:33:51.589Z,7.20
2017-11-21T23:36:18.021Z,7.10
2017-11-21T23:38:45.219Z,7.10
2017-11-21T23:41:11.675Z,7.00
2017-11-21T23:43:38.051Z,7.10
2017-11-21T23:46:04.508Z,7.10
2017-11-21T23:48:30.945Z,7.10
2017-11-21T23:50:57.372Z,7.10
2017-11-21T23:53:23.766Z,7.00
2017-11-21T23:55:50.187Z,7.10
2017-11-21T23:58:16.606Z,7.10
